sensor_id;sensor_type;location;lat;lon;timestamp;temperature;humidity
10911;DHT22;5508;49.150;11.030;2023-09-18T00:01:50;14.70;99.90
10911;DHT22;5508;49.150;11.030;2023-09-18T00:04:52;14.70;99.90
10911;DHT22;5508;49.150;11.030;2023-09-18T00:07:52;14.60;99.90
10911;DHT22;5508;49.150;11.030;2023-09-18T00:10:54;14.60;99.90
10911;DHT22;5508;49.150;11.030;2023-09-18T00:13:55;14.60;99.90
10911;DHT22;5508;49.150;11.030;2023-09-18T00:16:55;14.50;99.90
10911;DHT22;5508;49.150;11.030;2023-09-18T00:19:57;14.50;99.90
10911;DHT22;5508;49.150;11.030;2023-09-18T00:22:58;14.50;99.90
10911;DHT22;5508;49.150;11.030;2023-09-18T00:25:58;14.40;99.90
10911;DHT22;5508;49.150;11.030;2023-09-18T00:28:59;14.40;99.90
10911;DHT22;5508;49.150;11.030;2023-09-18T00:31:59;14.40;99.90
10911;DHT22;5508;49.150;11.030;2023-09-18T00:35:00;14.40;99.90
10911;DHT22;5508;49.150;11.030;2023-09-18T00:38:01;14.40;99.90
10911;DHT22;5508;49.150;11.030;2023-09-18T00:41:04;14.40;99.90
10911;DHT22;5508;49.150;11.030;2023-09-18T00:44:04;14.40;99.90
10911;DHT22;5508;49.150;11.030;2023-09-18T00:47:07;14.30;99.90
10911;DHT22;5508;49.150;11.030;2023-09-18T00:50:09;14.40;99.90
10911;DHT22;5508;49.150;11.030;2023-09-18T00:53:17;14.40;99.90
10911;DHT22;5508;49.150;11.030;2023-09-18T00:56:19;14.40;99.90
10911;DHT22;5508;49.150;11.030;2023-09-18T00:59:21;14.30;99.90
10911;DHT22;5508;49.150;11.030;2023-09-18T01:02:21;14.30;99.90
10911;DHT22;5508;49.150;11.030;2023-09-18T01:05:22;14.30;99.90
10911;DHT22;5508;49.150;11.030;2023-09-18T01:08:23;14.40;99.90
10911;DHT22;5508;49.150;11.030;2023-09-18T01:11:31;14.30;99.90
10911;DHT22;5508;49.150;11.030;2023-09-18T01:14:44;14.20;99.90
10911;DHT22;5508;49.150;11.030;2023-09-18T01:17:50;14.20;99.90
10911;DHT22;5508;49.150;11.030;2023-09-18T01:20:51;14.20;99.90
10911;DHT22;5508;49.150;11.030;2023-09-18T01:23:51;14.10;99.90
10911;DHT22;5508;49.150;11.030;2023-09-18T01:26:52;14.10;99.90
10911;DHT22;5508;49.150;11.030;2023-09-18T01:29:52;14.10;99.90
10911;DHT22;5508;49.150;11.030;2023-09-18T01:32:55;14.10;99.90
10911;DHT22;5508;49.150;11.030;2023-09-18T01:35:57;14.10;99.90
10911;DHT22;5508;49.150;11.030;2023-09-18T01:39:00;14.10;99.90
10911;DHT22;5508;49.150;11.030;2023-09-18T01:42:03;14.00;99.90
10911;DHT22;5508;49.150;11.030;2023-09-18T01:45:06;13.90;99.90
10911;DHT22;5508;49.150;11.030;2023-09-18T01:48:06;14.00;99.90
10911;DHT22;5508;49.150;11.030;2023-09-18T01:51:07;14.00;99.90
10911;DHT22;5508;49.150;11.030;2023-09-18T01:54:08;14.00;99.90
10911;DHT22;5508;49.150;11.030;2023-09-18T01:57:08;13.90;99.90
10911;DHT22;5508;49.150;11.030;2023-09-18T02:00:09;13.90;99.90
10911;DHT22;5508;49.150;11.030;2023-09-18T02:03:10;13.90;99.90
10911;DHT22;5508;49.150;11.030;2023-09-18T02:06:11;13.90;99.90
10911;DHT22;5508;49.150;11.030;2023-09-18T02:09:11;13.80;99.90
10911;DHT22;5508;49.150;11.030;2023-09-18T02:12:12;13.80;99.90
10911;DHT22;5508;49.150;11.030;2023-09-18T02:15:17;13.80;99.90
10911;DHT22;5508;49.150;11.030;2023-09-18T02:18:18;13.80;99.90
10911;DHT22;5508;49.150;11.030;2023-09-18T02:21:22;13.70;99.90
10911;DHT22;5508;49.150;11.030;2023-09-18T02:24:24;13.80;99.90
10911;DHT22;5508;49.150;11.030;2023-09-18T02:27:24;13.80;99.90
10911;DHT22;5508;49.150;11.030;2023-09-18T02:30:25;13.80;99.90
10911;DHT22;5508;49.150;11.030;2023-09-18T02:33:25;13.80;99.90
10911;DHT22;5508;49.150;11.030;2023-09-18T02:36:26;13.70;99.90
10911;DHT22;5508;49.150;11.030;2023-09-18T02:39:27;13.80;99.90
10911;DHT22;5508;49.150;11.030;2023-09-18T02:42:27;13.70;99.90
10911;DHT22;5508;49.150;11.030;2023-09-18T02:45:28;13.70;99.90
10911;DHT22;5508;49.150;11.030;2023-09-18T02:48:28;13.70;99.90
10911;DHT22;5508;49.150;11.030;2023-09-18T02:51:29;13.70;99.90
10911;DHT22;5508;49.150;11.030;2023-09-18T02:54:32;13.70;99.90
10911;DHT22;5508;49.150;11.030;2023-09-18T02:57:32;13.70;99.90
10911;DHT22;5508;49.150;11.030;2023-09-18T03:00:33;13.70;99.90
10911;DHT22;5508;49.150;11.030;2023-09-18T03:03:33;13.60;99.90
10911;DHT22;5508;49.150;11.030;2023-09-18T03:06:34;13.70;99.90
10911;DHT22;5508;49.150;11.030;2023-09-18T03:09:38;13.70;99.90
10911;DHT22;5508;49.150;11.030;2023-09-18T03:12:39;13.70;99.90
10911;DHT22;5508;49.150;11.030;2023-09-18T03:15:39;13.60;99.90
10911;DHT22;5508;49.150;11.030;2023-09-18T03:18:40;13.70;99.90
10911;DHT22;5508;49.150;11.030;2023-09-18T03:21:41;13.70;99.90
10911;DHT22;5508;49.150;11.030;2023-09-18T03:24:41;13.60;99.90
10911;DHT22;5508;49.150;11.030;2023-09-18T03:27:42;13.60;99.90
10911;DHT22;5508;49.150;11.030;2023-09-18T03:30:43;13.70;99.90
10911;DHT22;5508;49.150;11.030;2023-09-18T03:33:43;13.60;99.90
10911;DHT22;5508;49.150;11.030;2023-09-18T03:36:44;13.70;99.90
10911;DHT22;5508;49.150;11.030;2023-09-18T03:39:44;13.70;99.90
10911;DHT22;5508;49.150;11.030;2023-09-18T03:42:45;13.80;99.90
10911;DHT22;5508;49.150;11.030;2023-09-18T03:45:46;13.90;99.90
10911;DHT22;5508;49.150;11.030;2023-09-18T03:48:46;14.00;99.90
10911;DHT22;5508;49.150;11.030;2023-09-18T03:51:47;14.10;99.90
10911;DHT22;5508;49.150;11.030;2023-09-18T03:54:48;14.10;99.90
10911;DHT22;5508;49.150;11.030;2023-09-18T03:57:48;14.40;99.90
10911;DHT22;5508;49.150;11.030;2023-09-18T04:00:49;14.50;99.90
10911;DHT22;5508;49.150;11.030;2023-09-18T04:03:49;14.60;99.90
10911;DHT22;5508;49.150;11.030;2023-09-18T04:06:50;14.60;99.90
10911;DHT22;5508;49.150;11.030;2023-09-18T04:09:51;14.60;99.90
10911;DHT22;5508;49.150;11.030;2023-09-18T04:12:52;14.50;99.90
10911;DHT22;5508;49.150;11.030;2023-09-18T04:15:52;14.60;99.90
10911;DHT22;5508;49.150;11.030;2023-09-18T04:18:57;14.50;99.90
10911;DHT22;5508;49.150;11.030;2023-09-18T04:21:57;14.50;99.90
10911;DHT22;5508;49.150;11.030;2023-09-18T04:24:58;14.40;99.90
10911;DHT22;5508;49.150;11.030;2023-09-18T04:27:59;14.40;99.90
10911;DHT22;5508;49.150;11.030;2023-09-18T04:30:59;14.30;99.90
10911;DHT22;5508;49.150;11.030;2023-09-18T04:34:00;14.20;99.90
10911;DHT22;5508;49.150;11.030;2023-09-18T04:37:00;14.30;99.90
10911;DHT22;5508;49.150;11.030;2023-09-18T04:40:01;14.20;99.90
10911;DHT22;5508;49.150;11.030;2023-09-18T04:43:03;14.20;99.90
10911;DHT22;5508;49.150;11.030;2023-09-18T04:46:06;14.10;99.90
10911;DHT22;5508;49.150;11.030;2023-09-18T04:49:07;14.20;99.90
10911;DHT22;5508;49.150;11.030;2023-09-18T04:52:08;14.20;99.90
10911;DHT22;5508;49.150;11.030;2023-09-18T04:55:08;14.10;99.90
10911;DHT22;5508;49.150;11.030;2023-09-18T04:58:09;14.20;99.90
10911;DHT22;5508;49.150;11.030;2023-09-18T05:01:09;14.40;99.90
10911;DHT22;5508;49.150;11.030;2023-09-18T05:04:11;14.30;99.90
10911;DHT22;5508;49.150;11.030;2023-09-18T05:07:11;14.30;99.90
10911;DHT22;5508;49.150;11.030;2023-09-18T05:10:12;14.30;99.90
10911;DHT22;5508;49.150;11.030;2023-09-18T05:13:13;14.30;99.90
10911;DHT22;5508;49.150;11.030;2023-09-18T05:16:13;14.30;99.90
10911;DHT22;5508;49.150;11.030;2023-09-18T05:19:14;14.30;99.90
10911;DHT22;5508;49.150;11.030;2023-09-18T05:22:14;14.30;99.90
10911;DHT22;5508;49.150;11.030;2023-09-18T05:25:15;14.30;99.90
10911;DHT22;5508;49.150;11.030;2023-09-18T05:28:16;14.40;99.90
10911;DHT22;5508;49.150;11.030;2023-09-18T05:31:16;14.50;99.90
10911;DHT22;5508;49.150;11.030;2023-09-18T05:34:17;14.60;99.90
10911;DHT22;5508;49.150;11.030;2023-09-18T05:37:18;14.60;99.90
10911;DHT22;5508;49.150;11.030;2023-09-18T05:40:18;14.70;99.90
10911;DHT22;5508;49.150;11.030;2023-09-18T05:43:19;14.80;99.90
10911;DHT22;5508;49.150;11.030;2023-09-18T05:46:20;14.90;99.90
10911;DHT22;5508;49.150;11.030;2023-09-18T05:49:20;15.20;99.90
10911;DHT22;5508;49.150;11.030;2023-09-18T05:52:21;15.40;99.90
10911;DHT22;5508;49.150;11.030;2023-09-18T05:55:24;15.50;99.90
10911;DHT22;5508;49.150;11.030;2023-09-18T05:58:24;15.60;99.90
10911;DHT22;5508;49.150;11.030;2023-09-18T06:01:27;15.60;99.90
10911;DHT22;5508;49.150;11.030;2023-09-18T06:04:28;15.60;99.90
10911;DHT22;5508;49.150;11.030;2023-09-18T06:07:29;15.70;99.90
10911;DHT22;5508;49.150;11.030;2023-09-18T06:10:30;15.70;99.90
10911;DHT22;5508;49.150;11.030;2023-09-18T06:13:30;15.80;99.90
10911;DHT22;5508;49.150;11.030;2023-09-18T06:16:31;15.80;99.90
10911;DHT22;5508;49.150;11.030;2023-09-18T06:19:32;15.80;99.90
10911;DHT22;5508;49.150;11.030;2023-09-18T06:22:33;15.80;99.90
10911;DHT22;5508;49.150;11.030;2023-09-18T06:25:34;15.90;99.90
10911;DHT22;5508;49.150;11.030;2023-09-18T06:28:34;15.90;99.90
10911;DHT22;5508;49.150;11.030;2023-09-18T06:31:35;16.10;99.90
10911;DHT22;5508;49.150;11.030;2023-09-18T06:34:36;16.20;99.90
10911;DHT22;5508;49.150;11.030;2023-09-18T06:37:36;16.40;99.90
10911;DHT22;5508;49.150;11.030;2023-09-18T06:40:37;16.60;99.90
10911;DHT22;5508;49.150;11.030;2023-09-18T06:43:38;16.80;99.90
10911;DHT22;5508;49.150;11.030;2023-09-18T06:46:38;17.00;99.90
10911;DHT22;5508;49.150;11.030;2023-09-18T06:49:40;17.20;99.90
10911;DHT22;5508;49.150;11.030;2023-09-18T06:52:42;17.50;99.90
10911;DHT22;5508;49.150;11.030;2023-09-18T06:55:42;17.60;99.90
10911;DHT22;5508;49.150;11.030;2023-09-18T06:58:44;17.70;99.90
10911;DHT22;5508;49.150;11.030;2023-09-18T07:01:45;18.00;99.90
10911;DHT22;5508;49.150;11.030;2023-09-18T07:04:45;18.30;99.90
10911;DHT22;5508;49.150;11.030;2023-09-18T07:07:46;18.60;99.90
10911;DHT22;5508;49.150;11.030;2023-09-18T07:10:48;18.80;99.90
10911;DHT22;5508;49.150;11.030;2023-09-18T07:13:50;19.00;99.10
10911;DHT22;5508;49.150;11.030;2023-09-18T07:16:50;19.10;98.60
10911;DHT22;5508;49.150;11.030;2023-09-18T07:19:51;19.50;98.40
10911;DHT22;5508;49.150;11.030;2023-09-18T07:22:52;19.80;96.70
10911;DHT22;5508;49.150;11.030;2023-09-18T07:25:52;20.00;96.40
10911;DHT22;5508;49.150;11.030;2023-09-18T07:28:53;20.00;94.30
10911;DHT22;5508;49.150;11.030;2023-09-18T07:31:53;20.10;94.60
10911;DHT22;5508;49.150;11.030;2023-09-18T07:34:54;20.40;94.20
10911;DHT22;5508;49.150;11.030;2023-09-18T07:37:55;20.70;93.30
10911;DHT22;5508;49.150;11.030;2023-09-18T07:40:55;20.60;92.20
10911;DHT22;5508;49.150;11.030;2023-09-18T07:43:56;20.60;90.00
10911;DHT22;5508;49.150;11.030;2023-09-18T07:46:58;20.50;89.70
10911;DHT22;5508;49.150;11.030;2023-09-18T07:50:01;20.60;89.70
10911;DHT22;5508;49.150;11.030;2023-09-18T07:53:02;20.60;89.90
10911;DHT22;5508;49.150;11.030;2023-09-18T07:56:03;20.70;88.90
10911;DHT22;5508;49.150;11.030;2023-09-18T07:59:05;21.10;83.80
10911;DHT22;5508;49.150;11.030;2023-09-18T08:02:06;21.40;78.70
10911;DHT22;5508;49.150;11.030;2023-09-18T08:05:07;21.40;83.30
10911;DHT22;5508;49.150;11.030;2023-09-18T08:08:08;21.00;82.90
10911;DHT22;5508;49.150;11.030;2023-09-18T08:11:09;21.10;85.10
10911;DHT22;5508;49.150;11.030;2023-09-18T08:14:10;21.20;84.60
10911;DHT22;5508;49.150;11.030;2023-09-18T08:17:10;21.60;81.00
10911;DHT22;5508;49.150;11.030;2023-09-18T08:20:11;21.70;81.10
10911;DHT22;5508;49.150;11.030;2023-09-18T08:23:14;21.80;78.60
10911;DHT22;5508;49.150;11.030;2023-09-18T08:26:15;22.10;77.80
10911;DHT22;5508;49.150;11.030;2023-09-18T08:29:16;22.60;75.00
10911;DHT22;5508;49.150;11.030;2023-09-18T08:32:17;22.80;76.20
10911;DHT22;5508;49.150;11.030;2023-09-18T08:35:18;22.80;76.00
10911;DHT22;5508;49.150;11.030;2023-09-18T08:38:18;22.50;75.00
10911;DHT22;5508;49.150;11.030;2023-09-18T08:41:19;22.60;74.90
10911;DHT22;5508;49.150;11.030;2023-09-18T08:44:22;22.50;76.50
10911;DHT22;5508;49.150;11.030;2023-09-18T08:47:26;22.50;76.80
10911;DHT22;5508;49.150;11.030;2023-09-18T08:50:28;22.40;77.50
10911;DHT22;5508;49.150;11.030;2023-09-18T08:53:31;22.50;76.70
10911;DHT22;5508;49.150;11.030;2023-09-18T08:56:33;22.80;75.90
10911;DHT22;5508;49.150;11.030;2023-09-18T08:59:35;22.70;75.30
10911;DHT22;5508;49.150;11.030;2023-09-18T09:02:39;22.90;74.70
10911;DHT22;5508;49.150;11.030;2023-09-18T09:05:40;23.80;71.40
10911;DHT22;5508;49.150;11.030;2023-09-18T09:08:40;23.90;71.60
10911;DHT22;5508;49.150;11.030;2023-09-18T09:11:49;23.80;70.40
10911;DHT22;5508;49.150;11.030;2023-09-18T09:15:03;23.90;70.00
10911;DHT22;5508;49.150;11.030;2023-09-18T09:18:07;24.10;69.30
10911;DHT22;5508;49.150;11.030;2023-09-18T09:21:08;24.50;67.40
10911;DHT22;5508;49.150;11.030;2023-09-18T09:24:09;24.60;65.00
10911;DHT22;5508;49.150;11.030;2023-09-18T09:27:14;24.20;64.40
10911;DHT22;5508;49.150;11.030;2023-09-18T09:30:20;24.00;65.70
10911;DHT22;5508;49.150;11.030;2023-09-18T09:33:24;24.10;65.40
10911;DHT22;5508;49.150;11.030;2023-09-18T09:36:24;23.90;65.70
10911;DHT22;5508;49.150;11.030;2023-09-18T09:39:25;23.80;66.60
10911;DHT22;5508;49.150;11.030;2023-09-18T09:42:26;24.10;65.40
10911;DHT22;5508;49.150;11.030;2023-09-18T09:45:30;24.10;64.90
10911;DHT22;5508;49.150;11.030;2023-09-18T09:48:31;24.20;66.30
10911;DHT22;5508;49.150;11.030;2023-09-18T09:51:33;24.10;66.60
10911;DHT22;5508;49.150;11.030;2023-09-18T09:54:34;24.20;65.20
10911;DHT22;5508;49.150;11.030;2023-09-18T09:57:47;23.80;67.70
10911;DHT22;5508;49.150;11.030;2023-09-18T10:00:51;23.60;67.10
10911;DHT22;5508;49.150;11.030;2023-09-18T10:03:54;23.60;68.20
10911;DHT22;5508;49.150;11.030;2023-09-18T10:07:06;23.50;68.90
10911;DHT22;5508;49.150;11.030;2023-09-18T10:10:07;23.60;68.50
10911;DHT22;5508;49.150;11.030;2023-09-18T10:13:23;23.40;68.20
10911;DHT22;5508;49.150;11.030;2023-09-18T10:16:30;23.50;70.30
10911;DHT22;5508;49.150;11.030;2023-09-18T10:22:48;23.60;67.70
10911;DHT22;5508;49.150;11.030;2023-09-18T10:25:54;23.40;65.40
10911;DHT22;5508;49.150;11.030;2023-09-18T10:28:56;23.20;65.70
10911;DHT22;5508;49.150;11.030;2023-09-18T10:32:03;23.00;68.00
10911;DHT22;5508;49.150;11.030;2023-09-18T10:35:14;22.70;68.40
10911;DHT22;5508;49.150;11.030;2023-09-18T10:38:16;22.50;69.60
10911;DHT22;5508;49.150;11.030;2023-09-18T10:41:19;22.50;70.00
10911;DHT22;5508;49.150;11.030;2023-09-18T10:44:20;22.40;69.30
10911;DHT22;5508;49.150;11.030;2023-09-18T10:47:21;22.30;69.60
10911;DHT22;5508;49.150;11.030;2023-09-18T10:50:24;22.20;70.60
10911;DHT22;5508;49.150;11.030;2023-09-18T10:53:27;22.10;68.80
10911;DHT22;5508;49.150;11.030;2023-09-18T10:56:28;22.00;69.40
10911;DHT22;5508;49.150;11.030;2023-09-18T10:59:29;22.00;69.50
10911;DHT22;5508;49.150;11.030;2023-09-18T11:02:30;22.00;69.70
10911;DHT22;5508;49.150;11.030;2023-09-18T11:05:34;22.10;71.10
10911;DHT22;5508;49.150;11.030;2023-09-18T11:08:47;22.10;71.20
10911;DHT22;5508;49.150;11.030;2023-09-18T11:14:59;22.10;71.90
10911;DHT22;5508;49.150;11.030;2023-09-18T11:18:02;22.10;72.00
10911;DHT22;5508;49.150;11.030;2023-09-18T11:21:10;22.00;72.10
10911;DHT22;5508;49.150;11.030;2023-09-18T11:27:24;21.80;73.70
10911;DHT22;5508;49.150;11.030;2023-09-18T11:30:25;21.60;74.60
10911;DHT22;5508;49.150;11.030;2023-09-18T11:33:37;21.50;75.10
10911;DHT22;5508;49.150;11.030;2023-09-18T11:36:38;21.60;75.50
10911;DHT22;5508;49.150;11.030;2023-09-18T11:39:40;21.60;74.90
10911;DHT22;5508;49.150;11.030;2023-09-18T11:46:24;21.40;77.20
10911;DHT22;5508;49.150;11.030;2023-09-18T11:49:25;21.30;77.60
10911;DHT22;5508;49.150;11.030;2023-09-18T11:52:29;21.00;78.10
10911;DHT22;5508;49.150;11.030;2023-09-18T11:55:30;20.90;79.60
10911;DHT22;5508;49.150;11.030;2023-09-18T11:58:30;20.80;81.60
10911;DHT22;5508;49.150;11.030;2023-09-18T12:01:54;20.50;81.00
10911;DHT22;5508;49.150;11.030;2023-09-18T12:05:14;20.10;84.40
10911;DHT22;5508;49.150;11.030;2023-09-18T12:08:16;19.90;87.10
10911;DHT22;5508;49.150;11.030;2023-09-18T12:11:16;19.60;87.60
10911;DHT22;5508;49.150;11.030;2023-09-18T12:14:20;19.40;89.90
10911;DHT22;5508;49.150;11.030;2023-09-18T12:17:20;19.20;92.00
10911;DHT22;5508;49.150;11.030;2023-09-18T12:20:21;19.10;94.00
10911;DHT22;5508;49.150;11.030;2023-09-18T12:23:22;19.10;94.10
10911;DHT22;5508;49.150;11.030;2023-09-18T12:26:25;19.00;95.20
10911;DHT22;5508;49.150;11.030;2023-09-18T12:29:26;18.90;98.10
10911;DHT22;5508;49.150;11.030;2023-09-18T12:32:27;18.80;99.70
10911;DHT22;5508;49.150;11.030;2023-09-18T12:35:28;18.70;99.70
10911;DHT22;5508;49.150;11.030;2023-09-18T12:38:30;18.50;99.90
10911;DHT22;5508;49.150;11.030;2023-09-18T12:41:31;18.20;99.90
10911;DHT22;5508;49.150;11.030;2023-09-18T12:44:32;18.00;99.90
10911;DHT22;5508;49.150;11.030;2023-09-18T12:47:33;18.00;99.90
10911;DHT22;5508;49.150;11.030;2023-09-18T12:50:35;17.80;99.90
10911;DHT22;5508;49.150;11.030;2023-09-18T12:53:36;17.70;99.90
10911;DHT22;5508;49.150;11.030;2023-09-18T12:56:41;17.60;99.90
10911;DHT22;5508;49.150;11.030;2023-09-18T12:59:42;17.50;99.90
10911;DHT22;5508;49.150;11.030;2023-09-18T13:02:44;17.40;99.90
10911;DHT22;5508;49.150;11.030;2023-09-18T13:05:45;17.40;99.90
10911;DHT22;5508;49.150;11.030;2023-09-18T13:08:48;17.60;99.90
10911;DHT22;5508;49.150;11.030;2023-09-18T13:11:53;17.50;99.90
10911;DHT22;5508;49.150;11.030;2023-09-18T13:15:01;17.60;99.90
10911;DHT22;5508;49.150;11.030;2023-09-18T13:18:11;17.50;99.90
10911;DHT22;5508;49.150;11.030;2023-09-18T13:21:12;17.50;99.90
10911;DHT22;5508;49.150;11.030;2023-09-18T13:24:30;17.50;99.90
10911;DHT22;5508;49.150;11.030;2023-09-18T13:27:31;17.30;99.90
10911;DHT22;5508;49.150;11.030;2023-09-18T13:30:33;17.20;99.90
10911;DHT22;5508;49.150;11.030;2023-09-18T13:33:39;17.20;99.90
10911;DHT22;5508;49.150;11.030;2023-09-18T13:36:40;17.30;99.90
10911;DHT22;5508;49.150;11.030;2023-09-18T13:39:42;17.20;99.90
10911;DHT22;5508;49.150;11.030;2023-09-18T13:42:42;17.20;99.90
10911;DHT22;5508;49.150;11.030;2023-09-18T13:45:43;17.10;99.90
10911;DHT22;5508;49.150;11.030;2023-09-18T13:48:43;17.10;99.90
10911;DHT22;5508;49.150;11.030;2023-09-18T13:51:45;16.90;99.90
10911;DHT22;5508;49.150;11.030;2023-09-18T13:54:46;16.90;99.90
10911;DHT22;5508;49.150;11.030;2023-09-18T13:57:51;17.00;99.90
10911;DHT22;5508;49.150;11.030;2023-09-18T14:00:52;17.00;99.90
10911;DHT22;5508;49.150;11.030;2023-09-18T14:03:53;17.00;99.90
10911;DHT22;5508;49.150;11.030;2023-09-18T14:06:54;16.90;99.90
10911;DHT22;5508;49.150;11.030;2023-09-18T14:09:55;16.80;99.90
10911;DHT22;5508;49.150;11.030;2023-09-18T14:12:55;16.80;99.90
10911;DHT22;5508;49.150;11.030;2023-09-18T14:15:57;16.80;99.90
10911;DHT22;5508;49.150;11.030;2023-09-18T14:18:59;16.80;99.90
10911;DHT22;5508;49.150;11.030;2023-09-18T14:22:00;16.70;99.90
10911;DHT22;5508;49.150;11.030;2023-09-18T14:25:04;16.70;99.90
10911;DHT22;5508;49.150;11.030;2023-09-18T14:28:06;16.80;99.90
10911;DHT22;5508;49.150;11.030;2023-09-18T14:31:06;16.90;99.90
10911;DHT22;5508;49.150;11.030;2023-09-18T14:34:07;16.90;99.90
10911;DHT22;5508;49.150;11.030;2023-09-18T14:37:08;16.90;99.90
10911;DHT22;5508;49.150;11.030;2023-09-18T14:40:09;16.80;99.90
10911;DHT22;5508;49.150;11.030;2023-09-18T14:43:12;16.70;99.90
10911;DHT22;5508;49.150;11.030;2023-09-18T14:46:13;16.80;99.90
10911;DHT22;5508;49.150;11.030;2023-09-18T14:49:13;16.90;99.90
10911;DHT22;5508;49.150;11.030;2023-09-18T14:52:15;17.00;99.90
10911;DHT22;5508;49.150;11.030;2023-09-18T14:55:16;17.00;99.90
10911;DHT22;5508;49.150;11.030;2023-09-18T14:58:17;17.10;99.90
10911;DHT22;5508;49.150;11.030;2023-09-18T15:01:19;17.10;99.90
10911;DHT22;5508;49.150;11.030;2023-09-18T15:04:20;17.20;99.90
10911;DHT22;5508;49.150;11.030;2023-09-18T15:07:22;17.30;99.90
10911;DHT22;5508;49.150;11.030;2023-09-18T15:10:23;17.00;99.90
10911;DHT22;5508;49.150;11.030;2023-09-18T15:13:23;17.10;99.90
10911;DHT22;5508;49.150;11.030;2023-09-18T15:16:24;17.10;99.90
10911;DHT22;5508;49.150;11.030;2023-09-18T15:19:25;17.10;99.90
10911;DHT22;5508;49.150;11.030;2023-09-18T15:22:25;17.20;99.90
10911;DHT22;5508;49.150;11.030;2023-09-18T15:25:26;17.20;99.90
10911;DHT22;5508;49.150;11.030;2023-09-18T15:28:28;17.20;99.90
10911;DHT22;5508;49.150;11.030;2023-09-18T15:31:30;17.20;99.90
10911;DHT22;5508;49.150;11.030;2023-09-18T15:34:30;17.20;99.90
10911;DHT22;5508;49.150;11.030;2023-09-18T15:37:31;17.30;99.90
10911;DHT22;5508;49.150;11.030;2023-09-18T15:40:32;17.50;99.90
10911;DHT22;5508;49.150;11.030;2023-09-18T15:43:33;17.50;99.90
10911;DHT22;5508;49.150;11.030;2023-09-18T15:46:34;17.30;99.90
10911;DHT22;5508;49.150;11.030;2023-09-18T15:49:35;17.40;99.90
10911;DHT22;5508;49.150;11.030;2023-09-18T15:52:36;17.40;99.90
10911;DHT22;5508;49.150;11.030;2023-09-18T15:55:37;17.30;99.90
10911;DHT22;5508;49.150;11.030;2023-09-18T15:58:38;17.30;99.90
10911;DHT22;5508;49.150;11.030;2023-09-18T16:01:38;17.30;99.90
10911;DHT22;5508;49.150;11.030;2023-09-18T16:04:40;17.20;99.90
10911;DHT22;5508;49.150;11.030;2023-09-18T16:07:40;17.30;99.90
10911;DHT22;5508;49.150;11.030;2023-09-18T16:10:42;17.20;99.90
10911;DHT22;5508;49.150;11.030;2023-09-18T16:13:43;17.20;99.90
10911;DHT22;5508;49.150;11.030;2023-09-18T16:16:44;17.20;99.90
10911;DHT22;5508;49.150;11.030;2023-09-18T16:19:44;17.20;99.90
10911;DHT22;5508;49.150;11.030;2023-09-18T16:22:45;17.00;99.90
10911;DHT22;5508;49.150;11.030;2023-09-18T16:25:47;17.00;99.90
10911;DHT22;5508;49.150;11.030;2023-09-18T16:28:48;17.10;99.90
10911;DHT22;5508;49.150;11.030;2023-09-18T16:31:48;17.10;99.90
10911;DHT22;5508;49.150;11.030;2023-09-18T16:34:49;16.90;99.90
10911;DHT22;5508;49.150;11.030;2023-09-18T16:37:50;16.90;99.90
10911;DHT22;5508;49.150;11.030;2023-09-18T16:40:50;16.80;99.90
10911;DHT22;5508;49.150;11.030;2023-09-18T16:43:51;16.80;99.90
10911;DHT22;5508;49.150;11.030;2023-09-18T16:46:52;17.00;99.90
10911;DHT22;5508;49.150;11.030;2023-09-18T16:49:52;17.00;99.90
10911;DHT22;5508;49.150;11.030;2023-09-18T16:52:53;17.00;99.90
10911;DHT22;5508;49.150;11.030;2023-09-18T16:55:53;17.00;99.90
10911;DHT22;5508;49.150;11.030;2023-09-18T16:58:54;17.10;99.90
10911;DHT22;5508;49.150;11.030;2023-09-18T17:01:55;17.00;99.90
10911;DHT22;5508;49.150;11.030;2023-09-18T17:04:55;16.90;99.90
10911;DHT22;5508;49.150;11.030;2023-09-18T17:07:56;16.80;99.90
10911;DHT22;5508;49.150;11.030;2023-09-18T17:10:57;16.80;99.90
10911;DHT22;5508;49.150;11.030;2023-09-18T17:13:58;16.70;99.90
10911;DHT22;5508;49.150;11.030;2023-09-18T17:16:59;16.60;99.90
10911;DHT22;5508;49.150;11.030;2023-09-18T17:19:59;16.50;99.90
10911;DHT22;5508;49.150;11.030;2023-09-18T17:23:00;16.40;99.90
10911;DHT22;5508;49.150;11.030;2023-09-18T17:26:01;16.40;99.90
10911;DHT22;5508;49.150;11.030;2023-09-18T17:29:02;16.30;99.90
10911;DHT22;5508;49.150;11.030;2023-09-18T17:32:03;16.20;99.90
10911;DHT22;5508;49.150;11.030;2023-09-18T17:35:04;16.10;99.90
10911;DHT22;5508;49.150;11.030;2023-09-18T17:38:04;16.10;99.90
10911;DHT22;5508;49.150;11.030;2023-09-18T17:41:05;15.90;99.90
10911;DHT22;5508;49.150;11.030;2023-09-18T17:44:07;15.90;99.90
10911;DHT22;5508;49.150;11.030;2023-09-18T17:47:07;15.80;99.90
10911;DHT22;5508;49.150;11.030;2023-09-18T17:50:08;15.70;99.90
10911;DHT22;5508;49.150;11.030;2023-09-18T17:53:09;15.60;99.90
10911;DHT22;5508;49.150;11.030;2023-09-18T17:56:10;15.70;99.90
10911;DHT22;5508;49.150;11.030;2023-09-18T17:59:12;15.50;99.90
10911;DHT22;5508;49.150;11.030;2023-09-18T18:02:12;15.50;99.90
10911;DHT22;5508;49.150;11.030;2023-09-18T18:05:13;15.40;99.90
10911;DHT22;5508;49.150;11.030;2023-09-18T18:08:13;15.30;99.90
10911;DHT22;5508;49.150;11.030;2023-09-18T18:11:14;15.30;99.90
10911;DHT22;5508;49.150;11.030;2023-09-18T18:14:15;15.20;99.90
10911;DHT22;5508;49.150;11.030;2023-09-18T18:17:16;15.10;99.90
10911;DHT22;5508;49.150;11.030;2023-09-18T18:20:16;15.20;99.90
10911;DHT22;5508;49.150;11.030;2023-09-18T18:23:17;15.20;99.90
10911;DHT22;5508;49.150;11.030;2023-09-18T18:26:18;15.10;99.90
10911;DHT22;5508;49.150;11.030;2023-09-18T18:29:19;15.10;99.90
10911;DHT22;5508;49.150;11.030;2023-09-18T18:32:21;15.00;99.90
10911;DHT22;5508;49.150;11.030;2023-09-18T18:35:22;15.10;99.90
10911;DHT22;5508;49.150;11.030;2023-09-18T18:38:22;15.00;99.90
10911;DHT22;5508;49.150;11.030;2023-09-18T18:41:23;15.00;99.90
10911;DHT22;5508;49.150;11.030;2023-09-18T18:44:25;14.90;99.90
10911;DHT22;5508;49.150;11.030;2023-09-18T18:47:26;14.90;99.90
10911;DHT22;5508;49.150;11.030;2023-09-18T18:50:27;14.90;99.90
10911;DHT22;5508;49.150;11.030;2023-09-18T18:53:28;14.90;99.90
10911;DHT22;5508;49.150;11.030;2023-09-18T18:56:30;14.90;99.90
10911;DHT22;5508;49.150;11.030;2023-09-18T18:59:30;15.00;99.90
10911;DHT22;5508;49.150;11.030;2023-09-18T19:02:31;14.90;99.90
10911;DHT22;5508;49.150;11.030;2023-09-18T19:05:32;14.90;99.90
10911;DHT22;5508;49.150;11.030;2023-09-18T19:08:33;14.90;99.90
10911;DHT22;5508;49.150;11.030;2023-09-18T19:11:34;14.90;99.90
10911;DHT22;5508;49.150;11.030;2023-09-18T19:14:35;14.90;99.90
10911;DHT22;5508;49.150;11.030;2023-09-18T19:17:36;14.90;99.90
10911;DHT22;5508;49.150;11.030;2023-09-18T19:20:36;15.00;99.90